createdAt,value
2019-04-21T00:00:54.260Z,14.00
2019-04-21T00:03:25.833Z,14.73
2019-04-21T00:06:09.210Z,13.90
2019-04-21T00:08:46.926Z,15.35
2019-04-21T00:11:20.035Z,14.18
2019-04-21T00:13:38.168Z,14.43
2019-04-21T00:16:01.460Z,13.97
2019-04-21T00:18:50.637Z,15.43
2019-04-21T00:21:24.392Z,14.73
2019-04-21T00:24:00.375Z,15.03
2019-04-21T00:26:37.640Z,16.03
2019-04-21T00:29:16.439Z,16.03
2019-04-21T00:31:39.349Z,15.60
2019-04-21T00:33:53.734Z,15.10
2019-04-21T00:36:29.644Z,14.90
2019-04-21T00:39:28.790Z,14.73
2019-04-21T00:41:48.515Z,15.27
2019-04-21T00:44:08.686Z,15.58
2019-04-21T00:46:44.626Z,14.77
2019-04-21T00:49:17.005Z,15.53
2019-04-21T00:52:07.138Z,15.28
2019-04-21T00:54:34.708Z,15.08
2019-04-21T00:57:03.672Z,15.28
2019-04-21T00:59:34.967Z,15.03
2019-04-21T01:01:59.713Z,16.30
2019-04-21T01:04:37.101Z,16.33
2019-04-21T01:07:07.175Z,16.07
2019-04-21T01:09:31.679Z,16.13
2019-04-21T01:12:08.106Z,15.90
2019-04-21T01:14:43.535Z,15.77
2019-04-21T01:17:14.589Z,14.27
2019-04-21T01:19:38.796Z,14.73
2019-04-21T01:21:51.963Z,13.73
2019-04-21T01:24:28.899Z,15.28
2019-04-21T01:27:00.838Z,15.20
2019-04-21T01:29:45.919Z,15.05
2019-04-21T01:32:19.367Z,15.43
2019-04-21T01:34:47.018Z,15.73
2019-04-21T01:37:15.831Z,16.47
2019-04-21T01:39:53.515Z,16.27
2019-04-21T01:42:21.717Z,16.07
2019-04-21T01:44:59.956Z,16.12
2019-04-21T01:47:26.304Z,16.73
2019-04-21T01:49:52.566Z,15.88
2019-04-21T01:52:38.305Z,16.50
2019-04-21T01:55:10.790Z,16.02
2019-04-21T01:57:44.710Z,17.73
2019-04-21T02:00:13.581Z,17.27
2019-04-21T02:02:59.462Z,17.15
2019-04-21T02:05:34.512Z,17.70
2019-04-21T02:07:54.772Z,18.35
2019-04-21T02:10:34.572Z,18.17
2019-04-21T02:12:56.698Z,17.33
2019-04-21T02:15:35.997Z,18.33
2019-04-21T02:18:04.642Z,17.80
2019-04-21T02:20:25.715Z,18.97
2019-04-21T02:23:17.849Z,16.30
2019-04-21T02:25:38.594Z,17.97
2019-04-21T02:28:13.487Z,16.47
2019-04-21T02:30:56.570Z,18.20
2019-04-21T02:33:34.476Z,18.32
2019-04-21T02:36:00.542Z,17.80
2019-04-21T02:38:30.143Z,19.03
2019-04-21T02:48:34.673Z,18.30
2019-04-21T02:50:50.756Z,19.77
2019-04-21T02:53:39.136Z,18.57
2019-04-21T02:56:03.902Z,19.60
2019-04-21T02:58:44.053Z,19.92
2019-04-21T03:01:17.981Z,19.85
2019-04-21T03:03:41.741Z,19.35
2019-04-21T03:06:16.919Z,18.85
2019-04-21T03:08:49.960Z,19.65
2019-04-21T03:11:12.268Z,19.83
2019-04-21T03:16:23.388Z,22.03
2019-04-21T03:18:56.618Z,20.03
2019-04-21T03:21:26.307Z,20.37
2019-04-21T03:23:54.015Z,21.60
2019-04-21T03:26:28.960Z,20.43
2019-04-21T03:28:56.276Z,21.42
2019-04-21T03:36:56.853Z,20.90
2019-04-21T03:38:53.395Z,20.35
2019-04-21T03:49:11.964Z,22.15
2019-04-21T03:51:56.799Z,22.07
2019-04-21T03:59:09.630Z,22.90
2019-04-21T04:09:44.407Z,22.87
2019-04-21T04:11:58.304Z,21.82
2019-04-21T04:19:41.932Z,23.97
2019-04-21T04:32:07.947Z,24.90
2019-04-21T04:49:54.907Z,25.67
2019-04-21T04:52:32.526Z,25.10
2019-04-21T04:54:58.730Z,23.30
2019-04-21T04:57:47.175Z,24.33
2019-04-21T05:00:03.418Z,25.87
2019-04-21T05:14:59.335Z,25.27
2019-04-21T05:20:08.900Z,24.70
2019-04-21T05:22:28.003Z,26.25
2019-04-21T05:24:53.816Z,26.20
2019-04-21T05:27:39.993Z,25.90
2019-04-21T05:30:22.146Z,27.15
2019-04-21T05:32:52.829Z,25.52
2019-04-21T05:35:41.738Z,25.50
2019-04-21T05:38:10.438Z,25.17
2019-04-21T05:40:35.893Z,26.30
2019-04-21T05:43:06.241Z,28.23
2019-04-21T05:45:47.746Z,26.23
2019-04-21T05:48:24.217Z,27.70
2019-04-21T05:50:44.199Z,28.20
2019-04-21T05:53:26.069Z,26.62
2019-04-21T05:58:21.346Z,27.70
2019-04-21T06:03:41.108Z,27.40
2019-04-21T06:06:08.672Z,28.97
2019-04-21T06:08:39.092Z,28.83
2019-04-21T06:11:10.439Z,28.65
2019-04-21T06:13:46.458Z,28.93
2019-04-21T06:16:07.254Z,28.47
2019-04-21T06:21:11.512Z,29.90
2019-04-21T06:23:42.248Z,28.90
2019-04-21T06:26:43.410Z,32.07
2019-04-21T06:28:45.360Z,29.93
2019-04-21T06:31:30.292Z,30.43
2019-04-21T06:33:48.881Z,29.10
2019-04-21T06:39:19.614Z,29.42
2019-04-21T06:41:39.501Z,28.25
2019-04-21T06:44:18.078Z,28.80
2019-04-21T06:46:39.309Z,27.67
2019-04-21T06:49:08.576Z,26.73
2019-04-21T06:51:44.820Z,25.60
2019-04-21T06:54:14.335Z,25.02
2019-04-21T06:56:54.351Z,24.80
2019-04-21T06:59:13.488Z,26.67
2019-04-21T07:02:21.278Z,24.30
2019-04-21T07:04:22.546Z,23.67
2019-04-21T07:06:57.412Z,24.67
2019-04-21T07:09:25.436Z,23.50
2019-04-21T07:11:58.087Z,22.73
2019-04-21T07:17:06.726Z,22.22
2019-04-21T07:19:34.957Z,23.05
2019-04-21T07:22:09.091Z,24.60
2019-04-21T07:27:02.687Z,22.65
2019-04-21T07:29:45.304Z,24.63
2019-04-21T07:32:22.202Z,25.37
2019-04-21T07:34:38.445Z,24.40
2019-04-21T07:37:06.467Z,25.97
2019-04-21T07:39:36.775Z,24.90
2019-04-21T07:42:04.614Z,25.08
2019-04-21T07:44:35.157Z,23.18
2019-04-21T07:47:11.816Z,23.27
2019-04-21T07:49:56.562Z,24.33
2019-04-21T07:52:39.510Z,24.35
2019-04-21T07:55:18.626Z,23.22
2019-04-21T07:57:35.446Z,23.55
2019-04-21T08:02:43.745Z,23.07
2019-04-21T08:08:08.135Z,22.80
2019-04-21T08:10:15.733Z,23.57
2019-04-21T08:12:43.262Z,24.12
2019-04-21T08:15:23.452Z,23.42
2019-04-21T08:17:51.022Z,21.87
2019-04-21T08:20:19.863Z,23.67
2019-04-21T08:22:51.806Z,22.93
2019-04-21T08:25:21.901Z,22.60
2019-04-21T08:30:32.289Z,21.93
2019-04-21T08:36:03.066Z,21.26
2019-04-21T08:38:00.873Z,21.97
2019-04-21T08:43:01.986Z,22.37
2019-04-21T08:50:41.453Z,21.27
2019-04-21T08:53:07.109Z,21.70
2019-04-21T08:55:51.902Z,21.82
2019-04-21T08:58:25.296Z,21.60
2019-04-21T09:01:09.232Z,21.65
2019-04-21T09:03:57.156Z,21.43
2019-04-21T09:06:40.336Z,22.45
2019-04-21T09:09:14.742Z,21.75
2019-04-21T09:11:28.764Z,22.52
2019-04-21T09:14:05.195Z,21.50
2019-04-21T09:16:31.256Z,22.13
2019-04-21T09:18:56.969Z,22.00
2019-04-21T09:21:38.304Z,22.02
2019-04-21T09:24:05.628Z,22.25
2019-04-21T09:26:34.344Z,22.70
2019-04-21T09:29:01.819Z,21.60
2019-04-21T09:31:26.012Z,21.63
2019-04-21T09:33:57.291Z,22.15
2019-04-21T09:36:25.516Z,22.50
2019-04-21T09:39:02.478Z,21.95
2019-04-21T09:41:27.682Z,22.20
2019-04-21T09:43:57.916Z,21.48
2019-04-21T09:46:27.993Z,22.25
2019-04-21T09:49:02.692Z,23.37
2019-04-21T09:51:28.462Z,22.13
2019-04-21T09:54:05.749Z,24.47
2019-04-21T09:56:39.523Z,32.67
2019-04-21T09:59:10.085Z,23.67
2019-04-21T10:01:45.068Z,22.27
2019-04-21T10:04:05.465Z,22.07
2019-04-21T10:06:34.915Z,24.18
2019-04-21T10:09:10.240Z,23.78
2019-04-21T10:11:39.016Z,22.65
2019-04-21T10:14:09.580Z,23.67
2019-04-21T10:16:55.781Z,23.67
2019-04-21T10:19:25.611Z,24.50
2019-04-21T10:21:56.227Z,25.08
2019-04-21T10:24:26.432Z,24.87
2019-04-21T10:26:56.092Z,24.37
2019-04-21T10:29:29.370Z,25.27
2019-04-21T10:31:57.316Z,26.73
2019-04-21T10:34:27.333Z,26.25
2019-04-21T10:36:56.915Z,26.23
2019-04-21T10:39:27.360Z,27.65
2019-04-21T10:41:57.263Z,26.80
2019-04-21T10:44:27.342Z,27.58
2019-04-21T10:46:56.907Z,27.10
2019-04-21T10:49:26.654Z,27.73
2019-04-21T10:51:57.228Z,30.45
2019-04-21T10:54:37.906Z,29.27
2019-04-21T10:59:29.061Z,27.95
2019-04-21T11:02:00.938Z,27.60
2019-04-21T11:04:36.451Z,29.60
2019-04-21T11:07:10.755Z,30.77
2019-04-21T11:09:38.014Z,30.00
2019-04-21T11:12:08.253Z,31.55
2019-04-21T11:14:38.949Z,30.07
2019-04-21T11:17:10.525Z,30.88
2019-04-21T11:19:41.030Z,29.18
2019-04-21T11:22:10.592Z,29.53
2019-04-21T11:24:40.841Z,29.15
2019-04-21T11:27:10.920Z,30.00
2019-04-21T11:29:41.345Z,30.02
2019-04-21T11:32:11.039Z,29.80
2019-04-21T11:34:41.016Z,28.42
2019-04-21T11:37:12.436Z,26.13
2019-04-21T11:39:50.130Z,30.85
2019-04-21T11:44:45.052Z,21.87
2019-04-21T11:47:25.017Z,23.52
2019-04-21T11:49:54.926Z,25.95
2019-04-21T11:52:25.038Z,27.50
2019-04-21T11:54:55.079Z,24.80
2019-04-21T11:57:28.731Z,26.00
2019-04-21T11:59:55.797Z,25.95
2019-04-21T12:02:25.733Z,27.30
2019-04-21T12:04:55.437Z,25.70
2019-04-21T12:07:25.128Z,24.32
2019-04-21T12:09:55.589Z,22.33
2019-04-21T12:12:25.416Z,22.95
2019-04-21T12:14:54.925Z,24.95
2019-04-21T12:17:25.858Z,25.93
2019-04-21T12:19:56.820Z,25.45
2019-04-21T12:22:29.944Z,27.02
2019-04-21T12:24:58.084Z,28.05
2019-04-21T12:27:29.949Z,41.50
2019-04-21T12:30:01.907Z,25.85
2019-04-21T12:32:40.621Z,27.32
2019-04-21T12:35:12.291Z,25.72
2019-04-21T12:37:42.944Z,27.07
2019-04-21T12:40:12.978Z,26.45
2019-04-21T12:42:43.752Z,28.38
2019-04-21T12:45:17.295Z,26.77
2019-04-21T12:47:49.946Z,26.95
2019-04-21T12:50:18.302Z,25.17
2019-04-21T12:52:47.761Z,24.77
2019-04-21T12:55:17.657Z,26.07
2019-04-21T12:57:47.712Z,26.62
2019-04-21T13:00:20.749Z,26.03
2019-04-21T13:02:51.681Z,24.32
2019-04-21T13:05:21.982Z,24.17
2019-04-21T13:07:51.529Z,23.75
2019-04-21T13:10:22.229Z,21.33
2019-04-21T13:15:21.902Z,21.05
2019-04-21T13:17:52.247Z,20.48
2019-04-21T13:20:23.295Z,21.20
2019-04-21T13:25:21.857Z,22.60
2019-04-21T13:27:52.494Z,25.13
2019-04-21T13:30:22.341Z,22.55
2019-04-21T13:32:53.136Z,22.10
2019-04-21T13:35:23.304Z,20.23
2019-04-21T13:37:54.728Z,20.60
2019-04-21T13:40:45.022Z,23.13
2019-04-21T13:43:04.358Z,23.10
2019-04-21T13:45:34.278Z,23.52
2019-04-21T13:48:04.518Z,23.55
2019-04-21T13:50:35.287Z,24.53
2019-04-21T13:53:06.768Z,19.90
2019-04-21T13:55:38.960Z,21.17
2019-04-21T13:58:12.421Z,20.77
2019-04-21T14:00:43.749Z,25.50
2019-04-21T14:03:14.621Z,26.82
2019-04-21T14:05:46.551Z,20.87
2019-04-21T14:08:16.224Z,19.85
2019-04-21T14:10:47.201Z,20.85
2019-04-21T14:13:16.740Z,18.87
2019-04-21T14:15:48.228Z,19.35
2019-04-21T14:18:18.593Z,19.27
2019-04-21T14:20:49.224Z,21.57
2019-04-21T14:23:28.599Z,21.50
2019-04-21T14:25:51.141Z,22.32
2019-04-21T14:28:21.956Z,22.23
2019-04-21T14:30:52.530Z,20.35
2019-04-21T14:33:23.521Z,19.75
2019-04-21T14:35:54.644Z,20.75
2019-04-21T14:38:24.930Z,19.80
2019-04-21T14:40:54.607Z,19.95
2019-04-21T14:43:24.135Z,20.73
2019-04-21T14:46:04.015Z,21.00
2019-04-21T14:51:41.103Z,19.90
2019-04-21T14:54:12.257Z,21.33
2019-04-21T14:56:43.096Z,25.60
2019-04-21T14:59:12.945Z,18.57
2019-04-21T15:01:44.161Z,17.47
2019-04-21T15:04:16.838Z,17.10
2019-04-21T15:06:45.564Z,18.25
2019-04-21T15:09:15.333Z,17.80
2019-04-21T15:11:44.858Z,17.53
2019-04-21T15:14:15.809Z,18.60
2019-04-21T15:16:46.907Z,17.87
2019-04-21T15:19:16.862Z,17.55
2019-04-21T15:21:46.364Z,18.43
2019-04-21T15:24:18.659Z,26.25
2019-04-21T15:26:51.559Z,23.85
2019-04-21T15:29:20.454Z,23.73
2019-04-21T15:31:50.647Z,26.27
2019-04-21T15:34:22.488Z,20.12
2019-04-21T15:39:19.892Z,19.55
2019-04-21T15:41:50.595Z,44.27
2019-04-21T15:44:20.842Z,22.27
2019-04-21T15:46:50.427Z,26.20
2019-04-21T15:49:20.822Z,20.02
2019-04-21T15:51:51.562Z,19.37
2019-04-21T15:54:28.906Z,20.07
2019-04-21T15:56:58.601Z,33.23
2019-04-21T15:59:30.554Z,126.02
2019-04-21T16:02:18.799Z,361.23
2019-04-21T16:04:54.869Z,344.13
2019-04-21T16:07:24.588Z,516.05
2019-04-21T16:09:55.864Z,565.23
2019-04-21T16:12:25.701Z,130.97
2019-04-21T16:14:56.447Z,186.92
2019-04-21T16:17:27.465Z,47.62
2019-04-21T16:19:57.179Z,80.30
2019-04-21T16:22:26.736Z,25.17
2019-04-21T16:24:56.911Z,267.18
2019-04-21T16:27:27.687Z,163.43
2019-04-21T16:32:28.017Z,57.05
2019-04-21T16:35:03.265Z,21.10
2019-04-21T16:37:29.824Z,21.82
2019-04-21T16:39:59.465Z,23.50
2019-04-21T16:42:30.045Z,19.48
2019-04-21T16:45:00.878Z,18.63
2019-04-21T16:47:30.430Z,16.77
2019-04-21T16:50:01.527Z,17.32
2019-04-21T16:52:34.176Z,16.85
2019-04-21T16:55:08.684Z,16.40
2019-04-21T16:57:43.814Z,15.95
2019-04-21T17:00:26.971Z,15.25
2019-04-21T17:02:46.401Z,15.90
2019-04-21T17:05:16.294Z,14.75
2019-04-21T17:07:47.009Z,19.70
2019-04-21T17:10:17.081Z,15.10
2019-04-21T17:12:47.954Z,15.38
2019-04-21T17:15:32.369Z,15.23
2019-04-21T17:18:07.849Z,14.68
2019-04-21T17:20:35.731Z,16.07
2019-04-21T17:22:51.629Z,17.00
2019-04-21T17:25:24.317Z,14.60
2019-04-21T17:27:53.455Z,14.50
2019-04-21T17:30:24.292Z,15.68
2019-04-21T17:32:55.357Z,16.73
2019-04-21T17:37:54.344Z,13.65
2019-04-21T17:40:26.330Z,12.73
2019-04-21T17:43:02.042Z,13.68
2019-04-21T17:45:27.350Z,13.90
2019-04-21T17:48:03.214Z,13.58
2019-04-21T17:50:29.512Z,13.70
2019-04-21T17:53:10.770Z,13.00
2019-04-21T17:56:06.347Z,12.23
2019-04-21T17:58:36.241Z,11.95
2019-04-21T18:01:20.634Z,13.15
2019-04-21T18:03:53.647Z,13.25
2019-04-21T18:06:10.148Z,12.80
2019-04-21T18:08:54.792Z,16.75
2019-04-21T18:11:10.295Z,18.95
2019-04-21T18:13:32.859Z,15.75
2019-04-21T18:16:18.063Z,15.27
2019-04-21T18:18:34.913Z,15.13
2019-04-21T18:21:24.851Z,13.18
2019-04-21T18:24:05.737Z,12.95
2019-04-21T18:26:37.929Z,13.75
2019-04-21T18:29:03.537Z,14.58
2019-04-21T18:31:40.109Z,12.80
2019-04-21T18:36:49.764Z,14.40
2019-04-21T18:39:42.294Z,14.75
2019-04-21T18:42:18.920Z,14.20
2019-04-21T18:45:04.866Z,15.35
2019-04-21T18:47:28.856Z,14.43
2019-04-21T18:49:48.097Z,14.03
2019-04-21T18:52:32.256Z,15.05
2019-04-21T18:55:05.296Z,14.35
2019-04-21T18:59:53.422Z,27.67
2019-04-21T19:02:24.436Z,20.30
2019-04-21T19:05:00.283Z,17.15
2019-04-21T19:07:45.223Z,18.77
2019-04-21T19:10:21.990Z,15.50
2019-04-21T19:13:16.225Z,15.57
2019-04-21T19:15:15.995Z,15.93
2019-04-21T19:18:16.999Z,15.13
2019-04-21T19:20:26.056Z,17.20
2019-04-21T19:25:20.644Z,17.00
2019-04-21T19:30:36.700Z,17.97
2019-04-21T19:32:58.019Z,17.67
2019-04-21T19:35:27.606Z,18.30
2019-04-21T19:38:03.681Z,19.55
2019-04-21T19:40:47.385Z,18.45
2019-04-21T19:43:07.828Z,17.40
2019-04-21T19:45:44.952Z,17.17
2019-04-21T19:48:20.212Z,18.23
2019-04-21T19:50:51.549Z,17.67
2019-04-21T19:53:25.384Z,17.85
2019-04-21T19:55:40.477Z,17.47
2019-04-21T19:58:09.090Z,18.85
2019-04-21T20:00:40.404Z,19.43
2019-04-21T20:03:12.376Z,19.05
2019-04-21T20:05:49.511Z,18.52
2019-04-21T20:08:27.830Z,18.53
2019-04-21T20:11:04.075Z,18.02
2019-04-21T20:13:51.382Z,16.70
2019-04-21T20:16:06.561Z,16.73
2019-04-21T20:18:27.422Z,17.50
2019-04-21T20:20:52.191Z,20.83
2019-04-21T20:23:27.758Z,24.10
2019-04-21T20:25:58.180Z,21.67
2019-04-21T20:28:37.196Z,17.50
2019-04-21T20:31:14.752Z,17.35
2019-04-21T20:34:00.639Z,17.87
2019-04-21T20:36:23.809Z,17.30
2019-04-21T20:38:40.796Z,17.67
2019-04-21T20:41:16.115Z,17.00
2019-04-21T20:44:08.586Z,16.27
2019-04-21T20:46:38.869Z,15.35
2019-04-21T20:49:10.089Z,14.58
2019-04-21T20:51:42.488Z,16.27
2019-04-21T20:54:17.593Z,15.88
2019-04-21T20:56:42.017Z,17.03
2019-04-21T20:59:12.041Z,16.93
2019-04-21T21:01:44.406Z,16.07
2019-04-21T21:04:13.697Z,17.30
2019-04-21T21:06:45.506Z,16.05
2019-04-21T21:09:18.228Z,16.35
2019-04-21T21:12:09.559Z,15.70
2019-04-21T21:17:03.058Z,15.03
2019-04-21T21:19:37.735Z,15.60
2019-04-21T21:21:56.376Z,15.48
2019-04-21T21:26:58.040Z,15.95
2019-04-21T21:29:39.492Z,16.62
2019-04-21T21:34:53.517Z,16.70
2019-04-21T21:39:51.970Z,37.10
2019-04-21T21:42:05.742Z,27.97
2019-04-21T21:44:35.779Z,21.33
2019-04-21T21:49:54.036Z,19.27
2019-04-21T21:52:22.538Z,18.65
2019-04-21T21:54:41.239Z,17.27
2019-04-21T21:57:10.783Z,17.87
2019-04-21T21:59:41.781Z,18.02
2019-04-21T22:02:16.657Z,17.80
2019-04-21T22:04:59.856Z,18.92
2019-04-21T22:07:22.517Z,19.52
2019-04-21T22:09:50.351Z,20.23
2019-04-21T22:12:20.206Z,19.03
2019-04-21T22:14:55.375Z,19.20
2019-04-21T22:17:41.607Z,20.30
2019-04-21T22:20:13.324Z,19.43
2019-04-21T22:22:41.960Z,19.87
2019-04-21T22:25:06.950Z,20.77
2019-04-21T22:27:35.000Z,21.05
2019-04-21T22:30:12.490Z,20.50
2019-04-21T22:32:50.265Z,20.25
2019-04-21T22:35:22.503Z,20.37
2019-04-21T22:37:54.766Z,20.08
2019-04-21T22:40:25.898Z,21.80
2019-04-21T22:42:56.655Z,20.12
2019-04-21T22:45:23.125Z,20.83
2019-04-21T22:47:49.458Z,20.55
2019-04-21T22:50:32.774Z,20.92
2019-04-21T22:53:07.186Z,20.52
2019-04-21T22:55:35.269Z,20.93
2019-04-21T22:58:09.593Z,21.42
2019-04-21T23:00:47.325Z,21.10
2019-04-21T23:03:17.414Z,21.97
2019-04-21T23:05:45.145Z,22.37
2019-04-21T23:08:15.054Z,22.32
2019-04-21T23:10:49.686Z,22.67
2019-04-21T23:13:23.018Z,19.50
2019-04-21T23:15:53.632Z,21.00
2019-04-21T23:18:39.090Z,22.40
2019-04-21T23:21:08.822Z,22.50
2019-04-21T23:23:42.692Z,23.17
2019-04-21T23:26:07.592Z,23.45
2019-04-21T23:28:45.462Z,23.17
2019-04-21T23:31:11.087Z,22.32
2019-04-21T23:33:27.142Z,24.43
2019-04-21T23:36:05.226Z,24.65
2019-04-21T23:38:34.701Z,23.57
2019-04-21T23:41:03.468Z,26.10
2019-04-21T23:43:33.001Z,24.10
2019-04-21T23:46:09.044Z,24.63
2019-04-21T23:48:51.465Z,24.57
2019-04-21T23:51:16.002Z,24.60
2019-04-21T23:53:37.531Z,22.42
2019-04-21T23:56:07.597Z,24.02
2019-04-21T23:58:39.923Z,25.57
